Terminal Aerodrome Forecast
Issued by NWS

Home | Current Version | Previous Version | Text Only | Print | Product List | Glossary On
Versions: 1 2 3 4 5 6 7 8 9 10 11 12 13 14 15 16 17
000
FTUS41 KPBZ 251400 AAA
TAFBVI
TAF AMD
KBVI 251410Z 2514/2612 23007KT P6SM OVC100
     FM251700 22010G18KT P6SM BKN040
     FM252200 24012G23KT P6SM BKN025
     FM260200 28010KT P6SM SKC
      AMD NOT SKED=

USA.gov is the U.S. government's official web portal to all federal, state and local government web resources and services.